Tiempo atmosférico en la estación meteorológica de Morón De Almazán , Soria (978 m.)



Fecha
DESCASC
Temp. máxima en grados centígrados (hora)
DESCASC
Temp. mínima en grados centígrados (hora)
DESCASC
Temp. media en grados centígrados
DESCASC
Racha de viento máxima en m/sg (hora)
DESCASC
Velocidad máxima media en intervalos de 10 minutos(hora)
DESCASC
Precipitaciones diarias en mm
DESCASC
Precipitaciones de 00:00 a 06:00 en mm
DESCASC
Precipitaciones de 06:00 a 12:00 en mm
DESCASC
Precipitaciones de 12:00 a 18:00 en mm
DESCASC
Precipitaciones de 18:00 a 24:00 en mm
DESCASC
05-12-2019 10.4 (14:50) 3.3 (19:50) 6.8 10.28 (00:50) 6.67 (01:40) 0 0 0 0 0
04-12-2019 9.1 (14:00) 0.5 (02:10) 4.8 9.72 (16:00) 5.56 (22:10) 0.4 0 0 0.4 0
03-12-2019 3.2 (12:20) -3.3 (07:30) 0 7.78 (15:50) 5 (15:50) 0 0 0 0 0
02-12-2019 7.5 (15:00) 0.4 (00:00) 4 13.33 (13:30) 9.17 (14:10) 0 0 0 0 0
01-12-2019 9 (12:00) 0.3 (00:00) 4.7 6.39 (22:30) 4.17 (22:20) 0 0 0 0 0
30-11-2019 13.3 (11:20) 4 (00:00) 8.7 14.17 (14:50) 9.44 (14:40) 5.2 0.2 0 0 5
29-11-2019 12.1 (15:00) 5.7 (00:00) 8.9 7.78 (00:10) 4.72 (11:50) 0 0 0 0 0
28-11-2019 10 (12:50) 6.2 (07:30) 8.1 14.17 (14:00) 10.28 (01:50) 0.2 0 0 0 0.2
27-11-2019 12.4 (14:10) 6.1 (00:00) 9.2 16.94 (04:40) 11.39 (04:40) 0 0 0 0 0
26-11-2019 12.5 (15:00) 6.8 (00:00) 9.7 17.22 (18:30) 11.39 (18:20) 0 0 0 0 0
25-11-2019 12.7 (13:20) 4.7 (01:20) 8.7 11.67 (13:10) 8.61 (13:10) 3.8 3.4 0.4 0 0
24-11-2019 7.6 (15:10) 2.9 (00:00) 5.3 14.17 (03:30) 9.72 (03:30) 0 0 0 0 0
23-11-2019 8.4 (15:20) 3.1 (00:00) 5.7 18.06 (07:40) 11.94 (08:30) 1 0.4 0.6 0 0
22-11-2019 10.4 (17:00) 3.3 (00:00) 6.8 19.17 (13:10) 12.5 (12:40) 2.6 0 0 0.2 2.4
21-11-2019 8.7 (15:00) 1.7 (00:00) 5.2 10.83 (14:20) 7.5 (14:30) 0 0 0 0 0
20-11-2019 7.9 (14:40) -2.1 (04:10) 2.9 10.56 (23:40) 6.67 (16:30) 1 0 0 0 1
19-11-2019 8.4 (15:20) -4.5 (-00:0) 1.9 9.72 (14:10) 5.83 (13:20) 0 0 0 0 0
18-11-2019 7.5 (15:40) -2.3 (-00:0) 2.6 9.72 (12:50) 6.11 (12:50) 0 0 0 0 0
17-11-2019 4.6 (20:00) -1.6 (-00:0) 1.5 12.5 (14:10) 8.06 (14:20) 8.6 0 0 8.2 0.4
16-11-2019 5.3 (15:20) -0.6 (-00:0) 2.4 11.94 (15:30) 8.33 (15:30) 1.8 0.2 1.2 0.4 0
15-11-2019 5.5 (14:30) -0.2 (00:00) 2.6 13.89 (09:20) 9.17 (13:40) 1.2 0 0 1 0.2
14-11-2019 8 (01:10) 0.2 (00:00) 4.1 16.67 (14:00) 10.56 (14:00) 8.2 1 5 0 2.2
13-11-2019 13 (14:50) 4.7 (00:00) 8.8 11.11 (07:30) 8.06 (12:10) 11.6 11 0.6 0 0
12-11-2019 8.4 (13:30) -1.2 (-00:0) 3.6 11.39 (13:20) 7.5 (14:40) 1.6 0 0 0 1.6
11-11-2019 8.9 (15:50) -0.8 (23:30) 4 11.11 (16:00) 7.22 (15:20) 0 0 0 0 0
10-11-2019 6 (16:20) -0.1 (00:00) 2.9 13.61 (00:10) 8.33 (11:00) 2.2 2.2 0 0 0
09-11-2019 6.9 (22:10) 0.8 (00:00) 3.9 13.33 (22:10) 9.44 (12:10) 0 0 0 0 0
08-11-2019 7.7 (15:30) 0.9 (06:10) 4.3 19.44 (16:10) 12.5 (14:30) 0 0 0 0 0

Gráficas

Temp. máximas Temp. mínimas Temp. medias Precipitaciones Rachas de viento máximas Velocidades máximas media en intervalos de 10 minutos

Datos horarios

Fecha y hora oficial Temperatura (ºC) Velocidad del viento (km/h) Dirección del viento Racha (km/h) Dirección de racha Precipitación (mm) Presión (hPa) Tendencia (hPa) Humedad (%)
2019-12-07 23:00:00 -0.3 2 Este 6 Norte 0 -- -- 99
2019-12-07 22:00:00 -0.5 0 Calma 4 Este 0 -- -- 98
2019-12-07 21:00:00 0.5 0 Calma 5 Oeste 0 -- -- 97
2019-12-07 20:00:00 1.7 4 Noroeste 5 Noroeste 0 -- -- 96
2019-12-07 19:00:00 3 0 Calma 5 Oeste 0 -- -- 91
2019-12-07 18:00:00 5.6 3 Oeste 12 Oeste 0 -- -- 87
2019-12-07 17:00:00 10.5 9 Oeste 15 Oeste 0 -- -- 68
2019-12-07 16:00:00 11.4 12 Oeste 18 Oeste 0 -- -- 65
2019-12-07 15:00:00 10.5 13 Oeste 18 Oeste 0 -- -- 70
2019-12-07 14:00:00 7.7 7 Noroeste 11 Oeste 0 -- -- 95
2019-12-07 13:00:00 4.9 4 Oeste 8 Oeste 0 -- -- 97
2019-12-07 12:00:00 3.1 5 Noroeste 9 Noroeste 0 -- -- 98
2019-12-07 11:00:00 0.6 0 Calma -- -- 0.2 -- -- 98
2019-12-07 10:00:00 -1.7 0 Calma -- -- 0 -- -- 98
2019-12-07 09:00:00 -2.1 0 Calma 3 Noroeste 0 -- -- 99
2019-12-07 08:00:00 -2 0 Calma 4 Noroeste 0 -- -- 99
2019-12-07 07:00:00 -1.5 0 Calma 0 Calma 0 -- -- 100
2019-12-07 06:00:00 -1.3 0 Calma 4 Noroeste 0 -- -- 100
2019-12-07 05:00:00 -0.9 0 Calma 6 Nordeste 0 -- -- 100
2019-12-07 04:00:00 -0.5 3 Nordeste 6 Nordeste 0 -- -- 99
2019-12-07 03:00:00 -1.1 0 Calma 2 Este 0 -- -- 99
2019-12-07 02:00:00 -2.2 0 Calma 3 Este 0 -- -- 99
2019-12-07 01:00:00 -1.8 2 Este 3 Este 0 -- -- 99
2019-12-07 00:00:00 -0.9 0 Calma 7 Este 0 -- -- 99
2019-12-06 23:00:00 -0.5 2 Este 5 Este 0 -- -- 99
2019-12-06 22:00:00 -0.2 3 Nordeste 5 Sudeste 0 -- -- 98
2019-12-06 21:00:00 0.5 4 Este 5 Este 0 -- -- 97
2019-12-06 20:00:00 1.6 4 Este 6 Este 0 -- -- 96
2019-12-06 19:00:00 3.2 4 Este 5 Este 0 -- -- 92
2019-12-06 18:00:00 6.6 2 Este 4 Este 0 -- -- 82
2019-12-06 17:00:00 12 3 Oeste 8 Noroeste 0 -- -- 62
2019-12-06 16:00:00 13.1 0 Calma 10 Nordeste 0 -- -- 58
2019-12-06 15:00:00 10.9 5 Norte 18 Noroeste 0 -- -- 68
2019-12-06 14:00:00 11.2 3 Oeste 10 Sudeste 0 -- -- 67
2019-12-06 13:00:00 11.6 4 Sudeste 12 Este 0 -- -- 66
2019-12-06 12:00:00 10.2 6 Este 11 Este 0 -- -- 74
2019-12-06 11:00:00 7.5 7 Nordeste 13 Este 0 -- -- 83
2019-12-06 10:00:00 5.7 0 Calma 7 Este 0 -- -- 95
2019-12-06 09:00:00 1.8 2 Sudeste 5 Este 0 -- -- 99
2019-12-06 08:00:00 0.9 0 Calma 4 Nordeste 0 -- -- 99
2019-12-06 07:00:00 0.1 3 Sudeste 4 Sudeste 0 -- -- 99
2019-12-06 06:00:00 -0.8 0 Calma 3 Norte 0 -- -- 99
2019-12-06 05:00:00 -0.9 0 Calma 6 Este 0 -- -- 99
2019-12-06 04:00:00 -0.9 2 Nordeste 6 Nordeste 0 -- -- 99
2019-12-06 03:00:00 -0.1 3 Nordeste 6 Nordeste 0 -- -- 97
2019-12-06 02:00:00 1.6 0 Calma 9 Norte 0 -- -- 96
2019-12-06 01:00:00 3.3 0 Calma 4 Este 0 -- -- 93
2019-12-06 00:00:00 4.1 4 Este 9 Norte 0 -- -- 90
2019-12-05 23:00:00 5.1 5 Nordeste 7 Este 0 -- -- 87
2019-12-05 22:00:00 5.2 0 Calma 10 Sudeste 0 -- -- 89
2019-12-05 21:00:00 4.9 2 Nordeste 6 Este 0 -- -- 88
2019-12-05 20:00:00 3.4 3 Sudeste 15 Este 0 -- -- 92
2019-12-05 19:00:00 5.4 11 Este 17 Nordeste 0 -- -- 86
2019-12-05 18:00:00 6.8 13 Nordeste 21 Nordeste 0 -- -- 83
2019-12-05 17:00:00 8.1 12 Nordeste 22 Nordeste 0 -- -- 79
2019-12-05 16:00:00 9.4 8 Este 14 Nordeste 0 -- -- 73
2019-12-05 15:00:00 9.5 8 Nordeste 14 Este 0 -- -- 72
2019-12-05 14:00:00 8.5 11 Este 23 Nordeste 0 -- -- 76
2019-12-05 13:00:00 8.7 13 Nordeste 27 Nordeste 0 -- -- 76
2019-12-05 12:00:00 7.3 13 Nordeste 24 Nordeste 0 -- -- 82
2019-12-05 11:00:00 5.6 16 Nordeste 27 Nordeste 0 -- -- 88
2019-12-05 10:00:00 5.4 10 Nordeste 19 Nordeste 0 -- -- 86
2019-12-05 09:00:00 4.2 10 Nordeste 21 Nordeste 0 -- -- 90
2019-12-05 08:00:00 4.2 15 Nordeste 23 Nordeste 0 -- -- 88
2019-12-05 07:00:00 4.3 8 Nordeste 19 Nordeste 0 -- -- 88
2019-12-05 06:00:00 4.4 13 Nordeste 22 Nordeste 0 -- -- 89
2019-12-05 05:00:00 4.5 15 Norte 25 Norte 0 -- -- 88
2019-12-05 04:00:00 4.8 15 Norte 19 Norte 0 -- -- 84
2019-12-05 03:00:00 4.6 13 Norte 32 Norte 0 -- -- 84
2019-12-05 02:00:00 4.8 22 Nordeste 35 Norte 0 -- -- 82
2019-12-05 01:00:00 4.8 20 Nordeste 37 Nordeste 0 -- -- 80
2019-12-05 00:00:00 4.7 19 Nordeste 28 Nordeste 0 -- -- 82
2019-12-04 23:00:00 5 15 Norte 28 Nordeste 0 -- -- 85
2019-12-04 22:00:00 6.1 15 Norte 25 Nordeste 0 -- -- 77
2019-12-04 21:00:00 5 7 Norte 21 Nordeste 0 -- -- 85
2019-12-04 20:00:00 5.7 13 Norte 18 Norte 0 -- -- 85
2019-12-04 19:00:00 6.7 9 Norte 18 Nordeste 0 -- -- 82
2019-12-04 18:00:00 6.9 11 Nordeste 26 Nordeste 0 -- -- 81
2019-12-04 17:00:00 7.4 15 Nordeste 27 Nordeste 0 -- -- 77
2019-12-04 16:00:00 8.2 17 Nordeste 35 Nordeste 0 -- -- 74
2019-12-04 15:00:00 8.7 14 Nordeste 28 Este 0.2 -- -- 79
2019-12-04 14:00:00 9.1 13 Nordeste 23 Nordeste 0.2 -- -- 79
2019-12-04 13:00:00 9 14 Nordeste 23 Nordeste 0 -- -- 73
2019-12-04 12:00:00 8.2 13 Nordeste 23 Nordeste 0 -- -- 78
2019-12-04 11:00:00 7.4 11 Nordeste 17 Nordeste 0 -- -- 81
2019-12-04 10:00:00 3.5 0 Calma 6 Oeste 0 -- -- 97
2019-12-04 09:00:00 2.4 3 Oeste 6 Noroeste 0 -- -- 97
2019-12-04 08:00:00 2 2 Oeste 6 Oeste 0 -- -- 97
2019-12-04 07:00:00 1.9 2 Noroeste 5 Oeste 0 -- -- 97
2019-12-04 06:00:00 1.6 3 Oeste 9 Oeste 0 -- -- 97
2019-12-04 05:00:00 1.3 3 Oeste 6 Oeste 0 -- -- 97
2019-12-04 04:00:00 1 0 Calma 4 Oeste 0 -- -- 97
2019-12-04 03:00:00 0.7 3 Oeste 6 Oeste 0 -- -- 97
2019-12-04 02:00:00 0.6 2 Sudoeste 3 Sur 0 -- -- 96
2019-12-04 01:00:00 0.7 0 Calma 3 Sudeste 0 -- -- 96
2019-12-04 00:00:00 0.6 0 Calma 5 Este 0 -- -- 96
2019-12-03 23:00:00 0.2 4 Este 9 Este 0 -- -- 96
2019-12-03 22:00:00 -0.4 5 Este 8 Este 0 -- -- 97
2019-12-03 21:00:00 -1 3 Este 8 Este 0 -- -- 97
2019-12-03 20:00:00 -0.2 4 Este 8 Este 0 -- -- 94
2019-12-03 19:00:00 0.8 7 Este 19 Este 0 -- -- 89
2019-12-03 18:00:00 1.9 12 Sudeste 24 Este 0 -- -- 85
2019-12-03 17:00:00 2.4 14 Este 23 Este 0 -- -- 83
2019-12-03 16:00:00 2.2 17 Este 28 Este 0 -- -- 84
2019-12-03 15:00:00 1.7 17 Este 26 Este 0 -- -- 86
2019-12-03 14:00:00 1.5 12 Este 24 Este 0 -- -- 88
2019-12-03 13:00:00 1.4 14 Este 21 Este 0 -- -- 84
2019-12-03 12:00:00 2 12 Este 21 Este 0 -- -- 80
2019-12-03 11:00:00 2.7 11 Este 17 Sudeste 0 -- -- 77
2019-12-03 10:00:00 0.3 6 Este 14 Nordeste 0 -- -- 90
2019-12-03 09:00:00 -2.5 5 Este 8 Nordeste 0 -- -- 95
2019-12-03 08:00:00 -3.1 2 Este 8 Nordeste 0 -- -- 94
2019-12-03 07:00:00 -2.2 2 Este 8 Nordeste 0 -- -- 91
2019-12-03 06:00:00 -1 4 Este 12 Este 0 -- -- 89
2019-12-03 05:00:00 -1.3 5 Nordeste 11 Nordeste 0 -- -- 92
2019-12-03 04:00:00 -0.8 4 Norte 17 Nordeste 0 -- -- 90
2019-12-03 03:00:00 -1.1 2 Este 13 Este 0 -- -- 88
2019-12-03 02:00:00 -0.7 3 Sur 19 Nordeste 0 -- -- 86
2019-12-03 01:00:00 0.1 14 Nordeste 22 Nordeste 0 -- -- 87
2019-12-03 00:00:00 0.4 11 Nordeste 22 Nordeste 0 -- -- 87
2019-12-02 23:00:00 1.2 13 Nordeste 24 Nordeste 0 -- -- 83
2019-12-02 22:00:00 1.7 13 Nordeste 32 Nordeste 0 -- -- 84
2019-12-02 21:00:00 2.4 22 Nordeste 35 Norte 0 -- -- 80
2019-12-02 20:00:00 2.7 21 Norte 30 Norte 0 -- -- 86
2019-12-02 19:00:00 3.2 14 Nordeste 25 Nordeste 0 -- -- 88
2019-12-02 18:00:00 4.2 15 Nordeste 32 Norte 0 -- -- 81
2019-12-02 17:00:00 5.4 20 Norte 39 Norte 0 -- -- 74
2019-12-02 16:00:00 6.3 30 Norte 42 Norte 0 -- -- 71
2019-12-02 15:00:00 7.5 28 Norte 42 Norte 0 -- -- 70
2019-12-02 14:00:00 6.4 32 Norte 48 Norte 0 -- -- 72
2019-12-02 13:00:00 6.9 27 Norte 40 Nordeste 0 -- -- 71
2019-12-02 12:00:00 7.2 28 Nordeste 40 Nordeste 0 -- -- 69
2019-12-02 11:00:00 6.3 29 Norte 41 Norte 0 -- -- 74
2019-12-02 10:00:00 5.3 14 Nordeste 27 Nordeste 0 -- -- 79
2019-12-02 09:00:00 2.8 5 Nordeste 18 Nordeste 0 -- -- 87
2019-12-02 08:00:00 2.8 8 Nordeste 22 Norte 0 -- -- 88
2019-12-02 07:00:00 2.9 14 Nordeste 23 Nordeste 0 -- -- 88
2019-12-02 06:00:00 2.8 18 Norte 31 Norte 0 -- -- 88
2019-12-02 05:00:00 3.3 16 Nordeste 30 Nordeste 0 -- -- 86
2019-12-02 04:00:00 3.1 12 Nordeste 23 Nordeste 0 -- -- 86
2019-12-02 03:00:00 2.9 10 Nordeste 18 Norte 0 -- -- 89
2019-12-02 02:00:00 2.5 5 Nordeste 20 Nordeste 0 -- -- 91
2019-12-02 01:00:00 3.1 3 Nordeste 14 Nordeste 0 -- -- 91
2019-12-02 00:00:00 3.2 8 Nordeste 19 Nordeste 0 -- -- 89
2019-12-01 23:00:00 4.2 12 Nordeste 23 Nordeste 0 -- -- 86
2019-12-01 22:00:00 4 13 Nordeste 19 Nordeste 0 -- -- 85
2019-12-01 21:00:00 4.5 13 Nordeste 21 Nordeste 0 -- -- 84
2019-12-01 20:00:00 4.3 10 Nordeste 16 Nordeste 0 -- -- 86
2019-12-01 19:00:00 4 6 Nordeste 13 Nordeste 0 -- -- 90
2019-12-01 18:00:00 4.4 3 Nordeste 11 Este 0 -- -- 89
2019-12-01 17:00:00 7.1 8 Este 12 Nordeste 0 -- -- 77
2019-12-01 16:00:00 7.4 8 Nordeste 10 Nordeste 0 -- -- 78
2019-12-01 15:00:00 7.7 2 Sudoeste 6 Sudeste 0 -- -- 71
2019-12-01 14:00:00 8.3 3 Sudoeste 12 Sudoeste 0 -- -- 69
2019-12-01 13:00:00 7.8 8 Sudoeste 21 Sudoeste 0 -- -- 71
2019-12-01 12:00:00 9 11 Sudoeste 22 Sudoeste 0 -- -- 73
2019-12-01 11:00:00 5.7 8 Sur 16 Sur 0 -- -- 85
2019-12-01 10:00:00 6.1 5 Nordeste 8 Nordeste 0 -- -- 83
2019-12-01 09:00:00 2.1 5 Sudoeste 9 Sudoeste 0 -- -- 99
2019-12-01 08:00:00 1.6 7 Norte 10 Norte 0 -- -- 98
2019-12-01 07:00:00 1.2 3 Sur 17 Sur 0 -- -- 99
2019-12-01 06:00:00 0.3 5 Este 20 Sur 0 -- -- 98
2019-12-01 05:00:00 0.3 0 Calma 5 Sur 0 -- -- 98
2019-12-01 04:00:00 0.6 2 Sur 6 Este 0 -- -- 98
2019-12-01 03:00:00 1.7 3 Sur 9 Sudoeste 0 -- -- 96
2019-12-01 02:00:00 2.5 3 Sudoeste 11 Oeste 0 -- -- 96
2019-12-01 01:00:00 2.8 4 Oeste 9 Oeste 0 -- -- 95
2019-12-01 00:00:00 4.4 6 Oeste 21 Sudoeste 0 -- -- 87
2019-11-30 23:00:00 4 12 Sudoeste 45 Oeste 2.2 -- -- 89
2019-11-30 22:00:00 4.6 29 Oeste 47 Oeste 0.4 -- -- 84
2019-11-30 21:00:00 5.9 23 Oeste 39 Oeste 0.8 -- -- 87
2019-11-30 20:00:00 6.2 17 Noroeste 44 Oeste 0.2 -- -- 93
2019-11-30 19:00:00 7.7 24 Oeste 48 Oeste 1.4 -- -- 95
2019-11-30 18:00:00 10.3 27 Sudoeste 47 Sur 0 -- -- 87
2019-11-30 17:00:00 10.8 29 Sur 46 Sur 0 -- -- 83
2019-11-30 16:00:00 11.3 26 Sudoeste 49 Sur 0 -- -- 83
2019-11-30 15:00:00 11.9 30 Sudoeste 51 Sur 0 -- -- 80
2019-11-30 14:00:00 12.1 28 Sur 46 Sudoeste 0 -- -- 81
2019-11-30 13:00:00 12.8 30 Sudoeste 45 Sur 0 -- -- 80
2019-11-30 12:00:00 13 26 Sudoeste 41 Sur 0 -- -- 81
2019-11-30 11:00:00 12.3 16 Sur 28 Sur 0 -- -- 84
2019-11-30 10:00:00 10.8 12 Sur 32 Sur 0 -- -- 91
2019-11-30 09:00:00 9.9 12 Sur 28 Sudoeste 0 -- -- 93
2019-11-30 08:00:00 9.7 16 Sudoeste 28 Sudoeste 0 -- -- 95
2019-11-30 07:00:00 9.6 15 Sudoeste 27 Sudoeste 0 -- -- 94
2019-11-30 06:00:00 9.7 13 Sudoeste 26 Sudoeste 0 -- -- 92
2019-11-30 05:00:00 9.8 12 Sudoeste 23 Sudoeste 0 -- -- 95
2019-11-30 04:00:00 9.6 15 Sudoeste 25 Sudoeste 0 -- -- 94
2019-11-30 03:00:00 8.1 2 Sur 18 Sudoeste 0.2 -- -- 96
2019-11-30 02:00:00 8.6 0 Calma 15 Sudoeste 0 -- -- 96
2019-11-30 01:00:00 8.3 4 Sudoeste 15 Sudoeste 0 -- -- 99
2019-11-30 00:00:00 6.2 5 Noroeste 10 Oeste 0 -- -- 99
2019-11-29 23:00:00 6.1 5 Oeste 16 Sudoeste 0 -- -- 97
2019-11-29 22:00:00 8.7 13 Sudoeste 21 Sudoeste 0 -- -- 98
2019-11-29 21:00:00 8.4 8 Sudoeste 18 Sudoeste 0 -- -- 97
2019-11-29 20:00:00 8.8 10 Sudoeste 14 Sur 0 -- -- 97
2019-11-29 19:00:00 9.5 9 Sudoeste 14 Sudoeste 0 -- -- 94
2019-11-29 18:00:00 10 6 Sudoeste 12 Oeste 0 -- -- 92
2019-11-29 17:00:00 11.4 8 Oeste 16 Oeste 0 -- -- 86
2019-11-29 16:00:00 11.6 8 Oeste 21 Oeste 0 -- -- 86
2019-11-29 15:00:00 12.1 16 Oeste 25 Oeste 0 -- -- 86
2019-11-29 14:00:00 11.7 14 Oeste 21 Oeste 0 -- -- 89
2019-11-29 13:00:00 10.5 12 Oeste 18 Oeste 0 -- -- 93
2019-11-29 12:00:00 10.8 14 Oeste 25 Oeste 0 -- -- 91
2019-11-29 11:00:00 10.9 16 Oeste 23 Oeste 0 -- -- 90
2019-11-29 10:00:00 10.3 12 Oeste 23 Oeste 0 -- -- 95
2019-11-29 09:00:00 9.1 5 Oeste 14 Sudoeste 0 -- -- 97
2019-11-29 08:00:00 9.1 8 Sudoeste 16 Sudoeste 0 -- -- 95
2019-11-29 07:00:00 8.9 7 Sudoeste 14 Sudoeste 0 -- -- 96
2019-11-29 06:00:00 8.8 8 Oeste 15 Oeste 0 -- -- 97
2019-11-29 05:00:00 9.1 12 Oeste 20 Sudoeste 0 -- -- 94
2019-11-29 04:00:00 8.8 14 Oeste 22 Oeste 0 -- -- 94
2019-11-29 03:00:00 8.6 12 Sudoeste 23 Sudoeste 0 -- -- 94
2019-11-29 02:00:00 8.5 13 Sudoeste 26 Sudoeste 0 -- -- 93
2019-11-29 01:00:00 8.2 12 Sudoeste 28 Sudoeste 0 -- -- 95
2019-11-29 00:00:00 8.3 14 Sudoeste 30 Oeste 0.2 -- -- 94
2019-11-28 23:00:00 8.6 16 Sudoeste 30 Sudoeste 0 -- -- 91
2019-11-28 22:00:00 8.5 20 Sudoeste 39 Sudoeste 0 -- -- 90
2019-11-28 21:00:00 8.4 23 Sudoeste 39 Sudoeste 0 -- -- 90
2019-11-28 20:00:00 8.2 19 Sudoeste 32 Sur 0 -- -- 91
2019-11-28 19:00:00 8.3 20 Sudoeste 35 Sudoeste 0 -- -- 89
2019-11-28 18:00:00 7.8 19 Sudoeste 40 Sudoeste 0 -- -- 90
2019-11-28 17:00:00 8.8 24 Sudoeste 42 Sudoeste 0 -- -- 86
2019-11-28 16:00:00 9.9 26 Sudoeste 40 Sudoeste 0 -- -- 81
2019-11-28 15:00:00 9.1 25 Sudoeste 45 Sudoeste 0 -- -- 85
2019-11-28 14:00:00 8.8 31 Sudoeste 51 Sudoeste 0 -- -- 85
2019-11-28 13:00:00 9.1 29 Sudoeste 43 Sur 0 -- -- 85
2019-11-28 12:00:00 8.8 21 Sudoeste 34 Sudoeste 0 -- -- 86
2019-11-28 11:00:00 7.9 20 Sudoeste 38 Sur 0 -- -- 91
2019-11-28 10:00:00 6.6 26 Sudoeste 42 Sudoeste 0 -- -- 95
2019-11-28 09:00:00 6.5 22 Sudoeste 41 Sudoeste 0 -- -- 93
2019-11-28 08:00:00 6.4 21 Sudoeste 36 Sudoeste 0 -- -- 93
2019-11-28 07:00:00 6.5 18 Sudoeste 35 Oeste 0 -- -- 90
2019-11-28 06:00:00 8.2 23 Oeste 39 Oeste 0 -- -- 81
2019-11-28 05:00:00 7.9 22 Oeste 40 Oeste 0 -- -- 80
2019-11-28 04:00:00 8.1 17 Sudoeste 40 Oeste 0 -- -- 81
2019-11-28 03:00:00 8.2 24 Oeste 42 Sudoeste 0 -- -- 79
2019-11-28 02:00:00 8.1 32 Oeste 50 Oeste 0 -- -- 79
2019-11-28 01:00:00 7.7 25 Oeste 37 Oeste 0 -- -- 80
2019-11-28 00:00:00 7.9 19 Sudoeste 26 Sudoeste 0 -- -- 82
2019-11-27 23:00:00 7.9 14 Sudoeste 35 Oeste 0 -- -- 83
2019-11-27 22:00:00 8.1 18 Sudoeste 33 Oeste 0 -- -- 77
2019-11-27 21:00:00 7.8 22 Sudoeste 36 Sudoeste 0 -- -- 78
2019-11-27 20:00:00 8.4 14 Sudoeste 32 Sudoeste 0 -- -- 80
2019-11-27 19:00:00 8.4 17 Sudoeste 33 Sudoeste 0 -- -- 83
2019-11-27 18:00:00 8.8 22 Sudoeste 33 Sudoeste 0 -- -- 80
2019-11-27 17:00:00 9.6 19 Sudoeste 35 Oeste 0 -- -- 75
2019-11-27 16:00:00 10.2 28 Oeste 42 Oeste 0 -- -- 62
2019-11-27 15:00:00 12 23 Oeste 48 Oeste 0 -- -- 59
2019-11-27 14:00:00 11.8 25 Oeste 46 Oeste 0 -- -- 61
2019-11-27 06:00:00 -- -- -- -- -- -- -- -- --
2019-11-27 05:00:00 7.3 28 Oeste 61 Oeste 0 -- -- 79
2019-11-27 04:00:00 8.3 28 Oeste 55 Oeste 0 -- -- 82
2019-11-27 03:00:00 9.3 33 Oeste 56 Oeste 0 -- -- 77
2019-11-27 02:00:00 9.9 33 Oeste 57 Oeste 0 -- -- 79
2019-11-27 01:00:00 10.1 29 Sudoeste 49 Sudoeste 0 -- -- 89
2019-11-27 00:00:00 10.2 31 Sudoeste 50 Sudoeste 0 -- -- 89
2019-11-26 23:00:00 10.5 27 Sudoeste 51 Sudoeste 0 -- -- 90
2019-11-26 22:00:00 10.6 28 Sudoeste 49 Sudoeste 0 -- -- 93
2019-11-26 21:00:00 10.7 26 Sudoeste 48 Sudoeste 0 -- -- 92
2019-11-26 20:00:00 10.8 35 Sudoeste 59 Sudoeste 0 -- -- 90
2019-11-26 19:00:00 10.8 30 Sudoeste 62 Sudoeste 0 -- -- 89
2019-11-26 18:00:00 10.8 38 Sur 57 Sur 0 -- -- 88
2019-11-26 17:00:00 10.9 30 Sur 61 Sudoeste 0 -- -- 87
2019-11-26 16:00:00 11.1 35 Sur 55 Sur 0 -- -- 85
2019-11-26 15:00:00 12.5 34 Sudoeste 55 Sur 0 -- -- 80
2019-11-26 14:00:00 11 30 Sudoeste 53 Sudoeste 0 -- -- 86
2019-11-26 13:00:00 11 30 Sudoeste 51 Sudoeste 0 -- -- 83
2019-11-26 12:00:00 10.9 27 Sur 46 Sudoeste 0 -- -- 84
2019-11-26 11:00:00 9.9 28 Sudoeste 44 Sudoeste 0 -- -- 88
2019-11-26 10:00:00 9.1 24 Sudoeste 41 Sudoeste 0 -- -- 90
2019-11-26 09:00:00 8.5 24 Sudoeste 39 Oeste 0 -- -- 92
2019-11-26 08:00:00 7.4 11 Oeste 18 Sudoeste 0 -- -- 93
2019-11-26 07:00:00 7.1 12 Sudoeste 25 Sudoeste 0 -- -- 93
2019-11-26 06:00:00 7 14 Sudoeste 24 Sur 0 -- -- 92
2019-11-26 05:00:00 7 18 Sudoeste 30 Sudoeste 0 -- -- 94
2019-11-26 04:00:00 7.2 14 Sudoeste 23 Sudoeste 0 -- -- 93
2019-11-26 03:00:00 7.5 10 Oeste 19 Sudoeste 0 -- -- 88
2019-11-26 02:00:00 7.8 11 Oeste 33 Oeste 0 -- -- 88
2019-11-26 01:00:00 8.4 21 Oeste 30 Oeste 0 -- -- 89
2019-11-26 00:00:00 7.8 15 Oeste 24 Oeste 0 -- -- 92
2019-11-25 23:00:00 7.6 13 Oeste 19 Oeste 0 -- -- 93
2019-11-25 22:00:00 6.9 8 Oeste 13 Oeste 0 -- -- 93
2019-11-25 21:00:00 8.2 11 Oeste 19 Sudoeste 0 -- -- 87
2019-11-25 20:00:00 8.4 11 Sudoeste 18 Oeste 0 -- -- 84
2019-11-25 19:00:00 8.9 14 Oeste 29 Oeste 0 -- -- 80
2019-11-25 18:00:00 9.8 18 Oeste 34 Oeste 0 -- -- 79
2019-11-25 17:00:00 10.3 14 Oeste 40 Oeste 0 -- -- 81
2019-11-25 16:00:00 11.6 21 Oeste 32 Oeste 0 -- -- 78
2019-11-25 15:00:00 10.9 20 Oeste 40 Oeste 0 -- -- 85
2019-11-25 14:00:00 11.6 21 Oeste 42 Oeste 0 -- -- 80
2019-11-25 13:00:00 12.4 28 Oeste 40 Oeste 0 -- -- 78
2019-11-25 12:00:00 8.3 9 Sudoeste 22 Sudoeste 0.4 -- -- 96
2019-11-25 11:00:00 8.5 10 Sudoeste 21 Sudoeste 0 -- -- 91
2019-11-25 10:00:00 8.2 13 Sudoeste 26 Sudoeste 0 -- -- 89
2019-11-25 09:00:00 7.4 13 Sudoeste 26 Sudoeste 0 -- -- 93
2019-11-25 08:00:00 6.8 13 Sudoeste 26 Sudoeste 0 -- -- 94
2019-11-25 07:00:00 6.5 16 Sudoeste 30 Sur 0 -- -- 96
2019-11-25 06:00:00 7.2 15 Sudoeste 31 Sudoeste 0 -- -- 92
2019-11-25 05:00:00 6.7 18 Sudoeste 36 Sur 0.8 -- -- 94
2019-11-25 04:00:00 6.1 24 Sudoeste 41 Sudoeste 1 -- -- 96
2019-11-25 03:00:00 5.7 19 Sudoeste 37 Sudoeste 0.4 -- -- 96
2019-11-25 02:00:00 5.1 17 Sudoeste 31 Sudoeste 1.2 -- -- 96
2019-11-25 01:00:00 5.2 13 Sudoeste 30 Sur 0 -- -- 88
2019-11-25 00:00:00 5.2 14 Sudoeste 30 Sudoeste 0 -- -- 90
2019-11-24 23:00:00 4.5 7 Oeste 17 Oeste 0 -- -- 94
2019-11-24 22:00:00 4.5 9 Oeste 13 Oeste 0 -- -- 90
2019-11-24 21:00:00 4.7 9 Oeste 26 Oeste 0 -- -- 85
2019-11-24 20:00:00 5 16 Oeste 25 Oeste 0 -- -- 83
2019-11-24 19:00:00 4.8 14 Oeste 23 Oeste 0 -- -- 81
2019-11-24 18:00:00 5.4 13 Oeste 29 Oeste 0 -- -- 79
2019-11-24 17:00:00 6.8 20 Oeste 30 Oeste 0 -- -- 69
2019-11-24 16:00:00 6.1 21 Oeste 33 Oeste 0 -- -- 75
2019-11-24 15:00:00 7.3 21 Oeste 39 Oeste 0 -- -- 73
2019-11-24 14:00:00 6.4 24 Oeste 40 Oeste 0 -- -- 75
2019-11-24 13:00:00 5.9 27 Oeste 43 Oeste 0 -- -- 77
2019-11-24 12:00:00 4.4 26 Oeste 42 Oeste 0 -- -- 83
2019-11-24 11:00:00 4 23 Oeste 40 Oeste 0 -- -- 86
2019-11-24 10:00:00 3.6 30 Oeste 42 Oeste 0 -- -- 87
2019-11-24 09:00:00 3.4 22 Oeste 39 Oeste 0 -- -- 88
2019-11-24 08:00:00 3 17 Oeste 32 Oeste 0 -- -- 89
2019-11-24 07:00:00 2.9 20 Oeste 37 Oeste 0 -- -- 90
2019-11-24 06:00:00 3.1 25 Oeste 48 Oeste 0 -- -- 89
2019-11-24 05:00:00 3.1 34 Oeste 50 Oeste 0 -- -- 88
2019-11-24 04:00:00 3.3 27 Oeste 51 Oeste 0 -- -- 88
2019-11-24 03:00:00 3.7 28 Oeste 47 Oeste 0 -- -- 87
2019-11-24 02:00:00 3.7 25 Oeste 40 Oeste 0 -- -- 87
2019-11-24 01:00:00 4.2 18 Oeste 26 Oeste 0 -- -- 86
2019-11-24 00:00:00 4 19 Oeste 36 Noroeste 0 -- -- 85
2019-11-23 23:00:00 3.9 31 Noroeste 46 Oeste 0 -- -- 82
2019-11-23 22:00:00 4.6 33 Oeste 50 Oeste 0 -- -- 79
2019-11-23 21:00:00 4.7 29 Oeste 44 Oeste 0 -- -- 79
2019-11-23 20:00:00 4.5 27 Oeste 42 Oeste 0 -- -- 80
2019-11-23 19:00:00 4.8 21 Oeste 33 Oeste 0 -- -- 78
2019-11-23 18:00:00 4.7 12 Oeste 46 Oeste 0 -- -- 80
2019-11-23 17:00:00 6.1 27 Oeste 50 Oeste 0 -- -- 74
2019-11-23 16:00:00 8 39 Oeste 58 Oeste 0 -- -- 63
2019-11-23 15:00:00 7.8 37 Oeste 65 Oeste 0 -- -- 65
2019-11-23 14:00:00 6.4 38 Oeste 57 Oeste 0 -- -- 73
2019-11-23 13:00:00 6.2 36 Oeste 56 Oeste 0 -- -- 71
2019-11-23 12:00:00 5.6 38 Oeste 58 Oeste 0 -- -- 74
2019-11-23 11:00:00 4.2 30 Oeste 58 Noroeste 0 -- -- 82
2019-11-23 10:00:00 3.8 32 Oeste 60 Oeste 0 -- -- 84
2019-11-23 09:00:00 3.9 41 Oeste 63 Oeste 0 -- -- 84
2019-11-23 08:00:00 3.9 41 Oeste 65 Oeste 0 -- -- 86
2019-11-23 07:00:00 3.7 33 Oeste 51 Oeste 0.6 -- -- 91
2019-11-23 06:00:00 3.3 31 Oeste 58 Oeste 0.2 -- -- 91
2019-11-23 05:00:00 4.4 37 Oeste 58 Sudoeste 0 -- -- 84
2019-11-23 04:00:00 5 32 Oeste 53 Oeste 0 -- -- 83
2019-11-23 03:00:00 5.3 35 Oeste 59 Oeste 0 -- -- 80
2019-11-23 02:00:00 5.1 19 Sudoeste 51 Oeste 0 -- -- 83
2019-11-23 01:00:00 6.3 30 Sudoeste 54 Oeste 0.2 -- -- 80
2019-11-23 00:00:00 6.5 16 Sudoeste 26 Sudoeste 0 -- -- 86
2019-11-22 23:00:00 5.2 11 Sudoeste 22 Sudoeste 0 -- -- 86
2019-11-22 22:00:00 4.7 9 Oeste 24 Oeste 0 -- -- 92
2019-11-22 21:00:00 6.4 18 Oeste 35 Sudoeste 0.4 -- -- 85
2019-11-22 20:00:00 6 28 Sudoeste 62 Sudoeste 2 -- -- 88
2019-11-22 19:00:00 9.4 28 Sudoeste 47 Sudoeste 0 -- -- 89
2019-11-22 18:00:00 9.6 24 Sudoeste 38 Sudoeste 0 -- -- 89
2019-11-22 17:00:00 10.4 22 Sudoeste 37 Sur 0 -- -- 83
2019-11-22 16:00:00 9.9 18 Sur 48 Sur 0 -- -- 87
2019-11-22 15:00:00 8.6 31 Sur 63 Sur 0.2 -- -- 89
2019-11-22 14:00:00 8.8 36 Sur 69 Sur 0 -- -- 86
2019-11-22 13:00:00 8.8 41 Sur 66 Sur 0 -- -- 82
2019-11-22 12:00:00 8.7 30 Sur 49 Sur 0 -- -- 82
2019-11-22 11:00:00 7.1 22 Sur 37 Sur 0 -- -- 88
2019-11-22 10:00:00 6.9 18 Sur 31 Sur 0 -- -- 88
2019-11-22 09:00:00 6.1 15 Sur 25 Sur 0 -- -- 92
2019-11-22 08:00:00 5.7 11 Sur 30 Sur 0 -- -- 92
2019-11-22 07:00:00 5.4 15 Sur 31 Sur 0 -- -- 92
2019-11-22 06:00:00 5.3 14 Sur 26 Sur 0 -- -- 91
2019-11-22 05:00:00 4.6 6 Sudeste 17 Sur 0 -- -- 92
2019-11-22 04:00:00 4.6 7 Sudeste 14 Sudeste 0 -- -- 91
2019-11-22 03:00:00 4.7 10 Sur 22 Sur 0 -- -- 90
2019-11-22 02:00:00 4.3 9 Sur 18 Sur 0 -- -- 93
2019-11-22 01:00:00 3.9 6 Sur 26 Sur 0 -- -- 93
2019-11-22 00:00:00 4.1 14 Sur 24 Sur 0 -- -- 91
2019-11-21 23:00:00 3.5 10 Sur 20 Sur 0 -- -- 94
2019-11-21 22:00:00 3.2 6 Sudoeste 20 Sudoeste 0 -- -- 95
2019-11-21 21:00:00 3.6 10 Sudoeste 19 Sudoeste 0 -- -- 94
2019-11-21 20:00:00 2.5 8 Sudoeste 13 Sudoeste 0 -- -- 97
2019-11-21 19:00:00 3.6 9 Sudoeste 18 Sudoeste 0 -- -- 91
2019-11-21 18:00:00 4.8 12 Sudoeste 30 Sudoeste 0 -- -- 88
2019-11-21 17:00:00 7.1 18 Sudoeste 39 Sudoeste 0 -- -- 79
2019-11-21 16:00:00 7.2 19 Sudoeste 37 Sudoeste 0 -- -- 79
2019-11-21 15:00:00 8.7 22 Sudoeste 39 Sudoeste 0 -- -- 72
2019-11-21 14:00:00 7.3 23 Sudoeste 38 Sur 0 -- -- 80
2019-11-21 13:00:00 6.1 20 Sudoeste 36 Sudoeste 0 -- -- 87
2019-11-21 12:00:00 6 24 Sudoeste 35 Sudoeste 0 -- -- 86
2019-11-21 11:00:00 5 14 Sudoeste 29 Sudoeste 0 -- -- 90
2019-11-21 10:00:00 4 18 Sudoeste 33 Sudoeste 0 -- -- 91
2019-11-21 09:00:00 3.1 16 Sudoeste 33 Sudoeste 0 -- -- 93
2019-11-21 08:00:00 -- -- -- -- -- -- -- -- --
2019-11-21 07:00:00 -- -- -- -- -- -- -- -- --
2019-11-21 06:00:00 -- -- -- -- -- -- -- -- --
2019-11-21 05:00:00 -- -- -- -- -- -- -- -- --
2019-11-21 04:00:00 -- -- -- -- -- -- -- -- --
2019-11-21 03:00:00 -- -- -- -- -- -- -- -- --
2019-11-21 02:00:00 -- -- -- -- -- -- -- -- --
2019-11-21 01:00:00 -- -- -- -- -- -- -- -- --
2019-11-21 00:00:00 -- -- -- -- -- -- -- -- --
2019-11-20 23:00:00 -- -- -- -- -- -- -- -- --
2019-11-20 22:00:00 -- -- -- -- -- -- -- -- --
2019-11-20 21:00:00 -- -- -- -- -- -- -- -- --
2019-11-20 20:00:00 -- -- -- -- -- -- -- -- --
2019-11-20 19:00:00 3.2 10 Sudoeste 24 Sur 0.4 -- -- 90
2019-11-20 18:00:00 4.1 11 Sudoeste 33 Sudoeste 0 -- -- 86
2019-11-20 17:00:00 5.7 15 Sudoeste 37 Sur 0 -- -- 73
2019-11-20 16:00:00 6.6 17 Sudoeste 33 Sudoeste 0 -- -- 70
2019-11-20 15:00:00 7.3 17 Sudoeste 35 Sudoeste 0 -- -- 69
2019-11-20 14:00:00 7 14 Sudoeste 30 Sudoeste 0 -- -- 72
2019-11-20 13:00:00 6.5 15 Sudoeste 30 Sudoeste 0 -- -- 74
2019-11-20 12:00:00 5.4 19 Sur 30 Sudoeste 0 -- -- 80
2019-11-20 11:00:00 4.9 8 Sudoeste 21 Sur 0 -- -- 83
2019-11-20 10:00:00 2.5 3 Este 8 Nordeste 0 -- -- 94
2019-11-20 09:00:00 -0.3 3 Este 6 Nordeste 0 -- -- 96
2019-11-20 08:00:00 -0.9 2 Sudeste 6 Sudeste 0 -- -- 97
2019-11-20 07:00:00 -1.5 3 Este 8 Nordeste 0 -- -- 98
2019-11-20 06:00:00 -2 2 Este 5 Nordeste 0 -- -- 98
2019-11-20 05:00:00 -1.3 2 Sudeste 4 Nordeste 0 -- -- 97
2019-11-20 04:00:00 -1.9 0 Calma 6 Sudoeste 0 -- -- 98
2019-11-20 03:00:00 -1.6 0 Calma 5 Este 0 -- -- 98
2019-11-20 02:00:00 -1.7 3 Nordeste 5 Nordeste 0 -- -- 98
2019-11-20 01:00:00 -1.2 4 Nordeste 5 Nordeste 0 -- -- 97
2019-11-20 00:00:00 -0.9 0 Calma 5 Sudoeste 0 -- -- 95
2019-11-19 23:00:00 -0.5 2 Nordeste 4 Nordeste 0 -- -- 96
2019-11-19 22:00:00 0 3 Nordeste 6 Noroeste 0 -- -- 94
2019-11-19 21:00:00 1.1 0 Calma 17 Sudoeste 0 -- -- 90
2019-11-19 20:00:00 0.8 0 Calma 5 Sudoeste 0 -- -- 93
2019-11-19 19:00:00 2.2 3 Sudoeste 7 Oeste 0 -- -- 88
2019-11-19 18:00:00 2.8 4 Oeste 13 Oeste 0 -- -- 85
2019-11-19 17:00:00 5.7 11 Oeste 24 Oeste 0 -- -- 72
2019-11-19 16:00:00 7.6 17 Oeste 27 Oeste 0 -- -- 64
2019-11-19 15:00:00 7.9 20 Oeste 35 Oeste 0 -- -- 63
2019-11-19 14:00:00 7.4 20 Oeste 30 Oeste 0 -- -- 71
2019-11-19 13:00:00 5.8 21 Oeste 28 Oeste 0 -- -- 79
2019-11-19 12:00:00 2.4 6 Noroeste 15 Oeste 0 -- -- 99
2019-11-19 11:00:00 -0.4 10 Oeste 15 Oeste 0 -- -- 99
2019-11-19 10:00:00 -1.2 8 Oeste 15 Oeste 0 -- -- 98
2019-11-19 09:00:00 -2.2 7 Oeste 13 Oeste 0 -- -- 99
2019-11-19 08:00:00 -2.9 5 Noroeste 9 Oeste 0 -- -- 98
2019-11-19 07:00:00 -2.6 0 Calma 10 Oeste 0 -- -- 98
2019-11-19 06:00:00 -2.8 4 Oeste 8 Oeste 0 -- -- 98
2019-11-19 05:00:00 -3.9 2 Noroeste 4 Noroeste 0 -- -- 97
2019-11-19 04:00:00 -4.3 0 Calma 4 Nordeste 0 -- -- 98
2019-11-19 03:00:00 -3.3 0 Calma 6 Sudoeste 0 -- -- 97
2019-11-19 02:00:00 -2.1 4 Oeste 10 Noroeste 0 -- -- 97
2019-11-19 01:00:00 -2.2 8 Noroeste 10 Noroeste 0 -- -- 95
2019-11-19 00:00:00 -2.1 8 Oeste 12 Oeste 0 -- -- 97
2019-11-18 23:00:00 -1.3 3 Noroeste 9 Sudoeste 0 -- -- 94
2019-11-18 22:00:00 -1.4 5 Sur 7 Oeste 0 -- -- 95
2019-11-18 21:00:00 0 4 Oeste 17 Norte 0 -- -- 90
2019-11-18 20:00:00 0.6 9 Noroeste 18 Norte 0 -- -- 87
2019-11-18 19:00:00 3.3 13 Norte 19 Norte 0 -- -- 77
2019-11-18 18:00:00 4.4 10 Norte 26 Noroeste 0 -- -- 76
2019-11-18 17:00:00 6.8 12 Norte 22 Noroeste 0 -- -- 66
2019-11-18 16:00:00 6.6 16 Noroeste 27 Noroeste 0 -- -- 62
2019-11-18 15:00:00 6.8 17 Norte 30 Noroeste 0 -- -- 65
2019-11-18 14:00:00 6.8 20 Noroeste 29 Noroeste 0 -- -- 68
2019-11-18 13:00:00 4.9 22 Oeste 35 Oeste 0 -- -- 82
2019-11-18 12:00:00 4.9 17 Oeste 30 Oeste 0 -- -- 81
2019-11-18 11:00:00 3.9 17 Oeste 30 Oeste 0 -- -- 85
2019-11-18 10:00:00 2.6 17 Oeste 26 Noroeste 0 -- -- 91
2019-11-18 09:00:00 0.3 15 Oeste 28 Oeste 0 -- -- 99
2019-11-18 08:00:00 -0.2 17 Oeste 27 Oeste 0 -- -- 99
2019-11-18 07:00:00 0.4 18 Oeste 27 Oeste 0 -- -- 98
2019-11-18 06:00:00 1 11 Oeste 22 Oeste 0 -- -- 97
2019-11-18 05:00:00 1.1 14 Oeste 28 Noroeste 0 -- -- 97
2019-11-18 04:00:00 1.3 15 Oeste 30 Oeste 0 -- -- 96
2019-11-18 03:00:00 1.6 19 Oeste 27 Oeste 0 -- -- 95
2019-11-18 02:00:00 1.1 18 Oeste 31 Oeste 0 -- -- 95
2019-11-18 01:00:00 1.4 14 Oeste 33 Oeste 0 -- -- 94
2019-11-18 00:00:00 2.4 23 Oeste 34 Oeste 0 -- -- 92
2019-11-17 23:00:00 3.3 4 Sudoeste 24 Oeste 0 -- -- 95
2019-11-17 22:00:00 3.5 9 Oeste 18 Oeste 0 -- -- 96
2019-11-17 21:00:00 3.6 7 Oeste 20 Sudoeste 0 -- -- 94
2019-11-17 20:00:00 4.6 16 Sudoeste 26 Sudoeste 0.2 -- -- 91
2019-11-17 19:00:00 3.9 13 Sudoeste 35 Sudoeste 0.2 -- -- 95
2019-11-17 18:00:00 3.4 24 Sudoeste 36 Sudoeste 3.6 -- -- 96
2019-11-17 17:00:00 3.4 20 Sudoeste 37 Sudoeste 1.8 -- -- 96
2019-11-17 16:00:00 3.3 19 Sudoeste 42 Sudoeste 1.2 -- -- 95
2019-11-17 15:00:00 3 28 Sudoeste 45 Sudoeste 0.6 -- -- 93
2019-11-17 14:00:00 3.4 24 Sudoeste 43 Sudoeste 0.8 -- -- 90
2019-11-17 13:00:00 3.6 21 Sudoeste 40 Sudoeste 0.2 -- -- 88
2019-11-17 12:00:00 3.7 19 Sudoeste 33 Sudoeste 0 -- -- 83
2019-11-17 11:00:00 4 19 Oeste 30 Sudoeste 0 -- -- 83
2019-11-17 10:00:00 2.9 6 Oeste 18 Oeste 0 -- -- 86
2019-11-17 09:00:00 1.7 7 Oeste 23 Oeste 0 -- -- 92
2019-11-17 08:00:00 1.8 15 Oeste 23 Oeste 0 -- -- 94
2019-11-17 07:00:00 1 13 Oeste 18 Oeste 0 -- -- 96
2019-11-17 06:00:00 -0.1 6 Oeste 15 Oeste 0 -- -- 97
2019-11-17 05:00:00 -0.8 4 Oeste 12 Oeste 0 -- -- 97
2019-11-17 04:00:00 -1.2 4 Oeste 12 Oeste 0 -- -- 97
2019-11-17 03:00:00 -1.2 6 Oeste 13 Oeste 0 -- -- 97
2019-11-17 02:00:00 -1.1 3 Oeste 12 Noroeste 0 -- -- 97
2019-11-17 01:00:00 -0.3 6 Noroeste 12 Oeste 0 -- -- 96
2019-11-17 00:00:00 -0.1 10 Oeste 21 Oeste 0 -- -- 95
2019-11-16 23:00:00 -0.1 10 Oeste 17 Noroeste 0 -- -- 94
2019-11-16 22:00:00 1.3 3 Oeste 17 Sudoeste 0 -- -- 89
2019-11-16 21:00:00 2.3 13 Oeste 21 Oeste 0 -- -- 85
2019-11-16 20:00:00 2.7 10 Oeste 27 Oeste 0 -- -- 83
2019-11-16 19:00:00 3.1 17 Oeste 26 Oeste 0 -- -- 80
2019-11-16 18:00:00 2.9 16 Oeste 24 Oeste 0 -- -- 82
2019-11-16 17:00:00 3.8 15 Oeste 33 Oeste 0 -- -- 79
2019-11-16 16:00:00 4.1 23 Oeste 43 Oeste 0 -- -- 76
2019-11-16 15:00:00 4.4 25 Oeste 36 Oeste 0 -- -- 77
2019-11-16 14:00:00 2.7 17 Oeste 30 Oeste 0 -- -- 87
2019-11-16 13:00:00 1.4 18 Oeste 39 Oeste 0.4 -- -- 91
2019-11-16 12:00:00 2 27 Oeste 41 Oeste 0.8 -- -- 89
2019-11-16 11:00:00 0.8 22 Oeste 37 Oeste 0.4 -- -- 92
2019-11-16 10:00:00 0 18 Oeste 26 Oeste 0 -- -- 94
2019-11-16 09:00:00 -0.1 0 Calma -- -- 0 -- -- 93
2019-11-16 08:00:00 -0.6 0 Calma -- -- 0 -- -- 94
2019-11-16 07:00:00 -0.5 0 Calma -- -- 0 -- -- 94
2019-11-16 06:00:00 -0.5 0 Calma -- -- 0 -- -- 96
2019-11-16 05:00:00 -0.2 0 Calma -- -- 0 -- -- 98
2019-11-16 04:00:00 0 0 Calma -- -- 0 -- -- 99
2019-11-16 03:00:00 -0.2 0 Calma 13 Oeste 0 -- -- 99
2019-11-16 02:00:00 0.1 8 Oeste 16 Oeste 0.2 -- -- 99
2019-11-16 01:00:00 0.2 7 Oeste 12 Oeste 0 -- -- 99
2019-11-16 00:00:00 -0.1 4 Oeste 16 Oeste 0 -- -- 98
2019-11-15 23:00:00 0.3 13 Oeste 23 Oeste 0.2 -- -- 97
2019-11-15 22:00:00 0.7 8 Oeste 21 Oeste 0 -- -- 97
2019-11-15 21:00:00 0.5 11 Oeste 20 Oeste 0 -- -- 96
2019-11-15 20:00:00 0.4 5 Oeste 23 Oeste 0 -- -- 96
2019-11-15 19:00:00 1.6 14 Oeste 24 Oeste 0 -- -- 95
2019-11-15 18:00:00 1.1 13 Oeste 33 Oeste 0.8 -- -- 95
2019-11-15 17:00:00 2.9 25 Oeste 39 Oeste 0 -- -- 85
2019-11-15 16:00:00 3.7 31 Oeste 47 Oeste 0.2 -- -- 80
2019-11-15 15:00:00 3.7 17 Oeste 43 Oeste 0 -- -- 90
2019-11-15 14:00:00 4.6 25 Oeste 47 Oeste 0 -- -- 78
2019-11-15 13:00:00 2 27 Oeste 45 Oeste 0 -- -- 89
2019-11-15 12:00:00 2.5 30 Oeste 48 Oeste 0 -- -- 88
2019-11-15 11:00:00 2 30 Oeste 47 Oeste 0 -- -- 90
2019-11-15 10:00:00 1.4 27 Oeste 50 Oeste 0 -- -- 92
2019-11-15 09:00:00 1.3 28 Oeste 45 Oeste 0 -- -- 92
2019-11-15 08:00:00 1 28 Oeste 43 Oeste 0 -- -- 94
2019-11-15 07:00:00 0.9 22 Oeste 41 Oeste 0 -- -- 95
2019-11-15 06:00:00 0.4 18 Oeste 33 Oeste 0 -- -- 96
2019-11-15 05:00:00 0.3 9 Oeste 28 Noroeste 0 -- -- 94
2019-11-15 04:00:00 0.4 18 Oeste 30 Oeste 0 -- -- 91
2019-11-15 03:00:00 0.8 19 Oeste 36 Oeste 0 -- -- 92
2019-11-15 02:00:00 0.9 19 Oeste 32 Oeste 0 -- -- 95
2019-11-15 01:00:00 1.2 22 Oeste 33 Oeste 0 -- -- 94
2019-11-15 00:00:00 0.8 11 Oeste 37 Oeste 0 -- -- 94
2019-11-14 23:00:00 0.9 25 Oeste 36 Oeste 0 -- -- 93
2019-11-14 22:00:00 0.6 18 Oeste 29 Oeste 0.2 -- -- 95
2019-11-14 21:00:00 0.8 20 Oeste 35 Oeste 0.2 -- -- 95
2019-11-14 20:00:00 0.2 9 Oeste 21 Sudoeste 0.8 -- -- 96
2019-11-14 19:00:00 0.3 6 Sur 29 Sudoeste 1 -- -- 96
2019-11-14 18:00:00 3.1 13 Sur 34 Oeste 0 -- -- 80
2019-11-14 17:00:00 3.8 27 Oeste 43 Sudoeste 0 -- -- 71
2019-11-14 16:00:00 5.8 29 Oeste 46 Oeste 0 -- -- 63
2019-11-14 15:00:00 5.1 26 Oeste 55 Oeste 0 -- -- 63
2019-11-14 14:00:00 6.2 38 Oeste 60 Oeste 0 -- -- 59
2019-11-14 13:00:00 4.7 31 Oeste 52 Oeste 0 -- -- 64
2019-11-14 12:00:00 5.1 35 Oeste 52 Oeste 0 -- -- 66
2019-11-14 11:00:00 2.8 25 Oeste 47 Oeste 0 -- -- 84
2019-11-14 10:00:00 2.5 17 Oeste 36 Oeste 0 -- -- 89
2019-11-14 09:00:00 1.6 10 Sudoeste 17 Sudoeste 0 -- -- 96
2019-11-14 08:00:00 1 13 Oeste 43 Oeste 1.8 -- -- 97
2019-11-14 07:00:00 2 23 Oeste 59 Oeste 3.2 -- -- 95
2019-11-14 06:00:00 4.9 11 Sudoeste 46 Sudoeste 1 -- -- 86
2019-11-14 05:00:00 7 32 Sudoeste 49 Sudoeste 0 -- -- 69
2019-11-14 04:00:00 6.6 19 Sudoeste 39 Sudoeste 0 -- -- 71
2019-11-14 03:00:00 6.3 30 Oeste 51 Oeste 0 -- -- 72
2019-11-14 02:00:00 7.1 24 Oeste 37 Oeste 0 -- -- 81
2019-11-14 01:00:00 7.7 19 Oeste 32 Oeste 0 -- -- 75
2019-11-14 00:00:00 7.8 19 Sudoeste 35 Sudoeste 0 -- -- 75
2019-11-13 23:00:00 6.4 14 Sudoeste 24 Sudoeste 0 -- -- 78
2019-11-13 22:00:00 7.5 16 Sudoeste 27 Sudoeste 0 -- -- 72
2019-11-13 21:00:00 6.6 11 Sudoeste 24 Sudoeste 0 -- -- 76
2019-11-13 20:00:00 7.7 15 Sudoeste 28 Sudoeste 0 -- -- 73
2019-11-13 19:00:00 7.9 13 Sudoeste 26 Oeste 0 -- -- 76
2019-11-13 18:00:00 7.9 10 Oeste 31 Oeste 0 -- -- 78
2019-11-13 17:00:00 9 22 Oeste 36 Oeste 0 -- -- 70
2019-11-13 16:00:00 12 26 Oeste 37 Oeste 0 -- -- 55
2019-11-13 15:00:00 12.4 17 Oeste 26 Oeste 0 -- -- 54
2019-11-13 14:00:00 11.9 17 Noroeste 25 Noroeste 0 -- -- 55
2019-11-13 13:00:00 10.6 15 Noroeste 38 Noroeste 0 -- -- 64
2019-11-13 12:00:00 10.5 28 Noroeste 36 Noroeste 0 -- -- 65
2019-11-13 11:00:00 9.3 16 Noroeste 26 Noroeste 0 -- -- 75
2019-11-13 10:00:00 7.7 18 Noroeste 24 Noroeste 0 -- -- 82
2019-11-13 09:00:00 6.5 8 Noroeste 31 Norte 0 -- -- 86
2019-11-13 08:00:00 6.8 16 Noroeste 40 Noroeste 0 -- -- 95
2019-11-13 07:00:00 7 14 Oeste 22 Oeste 0.6 -- -- 98
2019-11-13 06:00:00 6.8 10 Sudoeste 24 Sudoeste 1.2 -- -- 98
2019-11-13 05:00:00 6.2 14 Sudoeste 22 Sudoeste 3.4 -- -- 98
2019-11-13 04:00:00 6.1 13 Sudoeste 23 Sudoeste 2.4 -- -- 97
2019-11-13 03:00:00 5.9 13 Sudoeste 27 Sudoeste 2.8 -- -- 97
2019-11-13 02:00:00 5.8 14 Sudoeste 30 Sudoeste 1 -- -- 96
2019-11-13 01:00:00 5.4 15 Sudoeste 28 Sudoeste 0.2 -- -- 96
2019-11-13 00:00:00 4.7 14 Sudoeste 27 Sudoeste 0.2 -- -- 95
2019-11-12 23:00:00 4.7 15 Sudoeste 25 Sudoeste 0.2 -- -- 93
2019-11-12 22:00:00 4.6 6 Sudoeste 14 Oeste 1 -- -- 95
2019-11-12 21:00:00 4.7 11 Oeste 19 Oeste 0.2 -- -- 92
2019-11-12 20:00:00 5.4 12 Oeste 24 Oeste 0 -- -- 83
2019-11-12 19:00:00 5.9 15 Oeste 27 Oeste 0 -- -- 78
2019-11-12 18:00:00 6 11 Oeste 23 Oeste 0 -- -- 78
2019-11-12 17:00:00 6.7 15 Oeste 31 Oeste 0 -- -- 74
2019-11-12 16:00:00 7.2 22 Oeste 35 Oeste 0 -- -- 71
2019-11-12 15:00:00 6.8 19 Noroeste 38 Oeste 0 -- -- 73
2019-11-12 14:00:00 8.4 25 Oeste 41 Oeste 0 -- -- 67
2019-11-12 13:00:00 7.8 22 Oeste 36 Oeste 0 -- -- 71
2019-11-12 12:00:00 5.4 24 Oeste 37 Oeste 0 -- -- 82
2019-11-12 11:00:00 3.3 23 Oeste 36 Oeste 0 -- -- 93
2019-11-12 10:00:00 2.6 12 Oeste 24 Oeste 0 -- -- 96
2019-11-12 09:00:00 1.2 9 Oeste 18 Oeste 0 -- -- 98
2019-11-12 08:00:00 0.3 5 Oeste 20 Oeste 0 -- -- 98
2019-11-12 07:00:00 -0.3 8 Oeste 16 Oeste 0 -- -- 98
2019-11-12 06:00:00 0 10 Oeste 13 Oeste 0 -- -- 99
2019-11-12 05:00:00 -0.2 11 Oeste 17 Oeste 0 -- -- 98
2019-11-12 04:00:00 0.2 9 Noroeste 17 Noroeste 0 -- -- 97
2019-11-12 03:00:00 -0.2 3 Noroeste 13 Oeste 0 -- -- 98
2019-11-12 02:00:00 -0.4 0 Calma 8 Noroeste 0 -- -- 99
2019-11-12 01:00:00 -0.2 8 Noroeste 11 Noroeste 0 -- -- 98
2019-11-12 00:00:00 -0.5 2 Noroeste 8 Oeste 0 -- -- 98
2019-11-11 23:00:00 0.1 6 Oeste 10 Oeste 0 -- -- 95
2019-11-11 22:00:00 2 8 Oeste 16 Norte 0 -- -- 90
2019-11-11 21:00:00 3.1 3 Noroeste 9 Oeste 0 -- -- 90
2019-11-11 20:00:00 2.2 4 Oeste 13 Noroeste 0 -- -- 89
2019-11-11 19:00:00 3.9 5 Noroeste 19 Noroeste 0 -- -- 83
2019-11-11 18:00:00 5.7 10 Noroeste 28 Noroeste 0 -- -- 79
2019-11-11 17:00:00 8 21 Oeste 38 Oeste 0 -- -- 78
2019-11-11 16:00:00 8.8 25 Oeste 40 Oeste 0 -- -- 75
2019-11-11 15:00:00 7.9 23 Oeste 38 Oeste 0 -- -- 83
2019-11-11 14:00:00 7 22 Oeste 35 Oeste 0 -- -- 84
2019-11-11 13:00:00 5.9 24 Oeste 34 Oeste 0 -- -- 88
2019-11-11 12:00:00 5 20 Oeste 31 Oeste 0 -- -- 92
2019-11-11 11:00:00 4.3 18 Oeste 27 Oeste 0 -- -- 92
2019-11-11 10:00:00 3.2 13 Oeste 25 Oeste 0 -- -- 95
2019-11-11 09:00:00 2.5 15 Oeste 25 Oeste 0 -- -- 95
2019-11-11 08:00:00 2.3 17 Oeste 29 Oeste 0 -- -- 94
2019-11-11 07:00:00 2.1 19 Oeste 28 Oeste 0 -- -- 94
2019-11-11 06:00:00 2.3 17 Oeste 27 Oeste 0 -- -- 94
2019-11-11 05:00:00 2.3 14 Oeste 34 Oeste 0 -- -- 94
2019-11-11 04:00:00 2.3 15 Oeste 23 Oeste 0 -- -- 95
2019-11-11 03:00:00 1.7 17 Oeste 29 Oeste 0 -- -- 96
2019-11-11 02:00:00 1 9 Oeste 26 Oeste 0 -- -- 97
2019-11-11 01:00:00 0.8 12 Oeste 27 Oeste 0 -- -- 96
2019-11-11 00:00:00 0.2 8 Oeste 18 Oeste 0 -- -- 95
2019-11-10 23:00:00 0.2 11 Oeste 24 Noroeste 0 -- -- 95
2019-11-10 22:00:00 0.6 13 Oeste 27 Oeste 0 -- -- 93
2019-11-10 21:00:00 1.4 14 Oeste 22 Oeste 0 -- -- 91
2019-11-10 20:00:00 1.6 13 Noroeste 27 Oeste 0 -- -- 90
2019-11-10 19:00:00 2.6 14 Oeste 31 Oeste 0 -- -- 84
2019-11-10 18:00:00 3.6 22 Oeste 36 Oeste 0 -- -- 80
2019-11-10 17:00:00 4.5 23 Oeste 35 Oeste 0 -- -- 76
2019-11-10 16:00:00 4.7 25 Noroeste 40 Oeste 0 -- -- 78
2019-11-10 15:00:00 4.9 21 Oeste 39 Noroeste 0 -- -- 83
2019-11-10 14:00:00 4.9 26 Oeste 41 Oeste 0 -- -- 82
2019-11-10 13:00:00 4.4 30 Oeste 43 Oeste 0 -- -- 81
2019-11-10 12:00:00 4 26 Oeste 44 Oeste 0 -- -- 85
2019-11-10 11:00:00 2.7 30 Oeste 46 Oeste 0 -- -- 85
2019-11-10 10:00:00 1.9 28 Oeste 40 Oeste 0 -- -- 88
2019-11-10 09:00:00 1.5 23 Oeste 39 Oeste 0 -- -- 90
2019-11-10 08:00:00 1 19 Oeste 30 Oeste 0 -- -- 94
2019-11-10 07:00:00 0.6 16 Oeste 25 Oeste 0 -- -- 94
2019-11-10 06:00:00 0.7 13 Oeste 28 Oeste 0 -- -- 91
2019-11-10 05:00:00 1.1 21 Oeste 32 Oeste 0 -- -- 90
2019-11-10 04:00:00 1.3 19 Oeste 27 Oeste 0.2 -- -- 91
2019-11-10 03:00:00 1.7 15 Oeste 22 Oeste 0 -- -- 97
2019-11-10 02:00:00 1.3 5 Oeste 10 Oeste 0 -- -- 98
2019-11-10 01:00:00 1.1 5 Oeste 49 Noroeste 2 -- -- 96
2019-11-10 00:00:00 4 32 Noroeste 45 Oeste 0 -- -- 84
2019-11-09 23:00:00 6.2 25 Oeste 48 Oeste 0 -- -- 88
2019-11-09 22:00:00 6.8 25 Oeste 45 Oeste 0 -- -- 88
2019-11-09 21:00:00 6.7 16 Oeste 25 Oeste 0 -- -- 88
2019-11-09 20:00:00 6 11 Sudoeste 27 Sudoeste 0 -- -- 92
2019-11-09 19:00:00 6.1 16 Oeste 28 Sudoeste 0 -- -- 93
2019-11-09 18:00:00 5.8 18 Oeste 31 Oeste 0 -- -- 96
2019-11-09 17:00:00 5.7 15 Oeste 35 Oeste 0 -- -- 96
2019-11-09 16:00:00 6.3 27 Oeste 42 Oeste 0 -- -- 89
2019-11-09 15:00:00 5.3 20 Oeste 39 Oeste 0 -- -- 95
2019-11-09 14:00:00 6.6 27 Oeste 42 Oeste 0 -- -- 80
2019-11-09 13:00:00 6.8 29 Oeste 48 Oeste 0 -- -- 73
2019-11-09 12:00:00 6 33 Oeste 46 Oeste 0 -- -- 75
2019-11-09 11:00:00 4.5 27 Oeste 44 Oeste 0 -- -- 82
2019-11-09 10:00:00 3.1 13 Oeste 27 Oeste 0 -- -- 90
2019-11-09 09:00:00 2.2 13 Oeste 20 Oeste 0 -- -- 92
2019-11-09 08:00:00 1.2 11 Oeste 24 Oeste 0 -- -- 92
2019-11-09 07:00:00 1.5 16 Oeste 24 Oeste 0 -- -- 91
2019-11-09 06:00:00 1.4 9 Oeste 29 Oeste 0 -- -- 91
2019-11-09 05:00:00 1.7 18 Oeste 32 Oeste 0 -- -- 89
2019-11-09 04:00:00 1.6 20 Oeste 35 Oeste 0 -- -- 90
2019-11-09 03:00:00 0.8 10 Oeste 23 Oeste 0 -- -- 91
2019-11-09 02:00:00 1.4 16 Oeste 34 Oeste 0 -- -- 89
2019-11-09 01:00:00 1.8 21 Oeste 40 Oeste 0 -- -- 86
2019-11-09 00:00:00 2.3 27 Oeste 47 Noroeste 0 -- -- 83
2019-11-08 23:00:00 2.9 29 Noroeste 50 Oeste 0 -- -- 81
2019-11-08 22:00:00 3.7 30 Oeste 46 Oeste 0 -- -- 77
2019-11-08 21:00:00 4.2 27 Oeste 42 Oeste 0 -- -- 75
2019-11-08 20:00:00 4.7 29 Oeste 44 Oeste 0 -- -- 73
2019-11-08 19:00:00 5.1 28 Oeste 48 Oeste 0 -- -- 71
2019-11-08 18:00:00 5.7 30 Oeste 55 Oeste 0 -- -- 67
2019-11-08 17:00:00 7.3 35 Oeste 70 Oeste 0 -- -- 64
2019-11-08 16:00:00 7.3 43 Oeste 67 Noroeste 0 -- -- 63
2019-11-08 15:00:00 7.1 44 Oeste 65 Oeste 0 -- -- 65
2019-11-08 14:00:00 6.3 40 Oeste 58 Oeste 0 -- -- 69
2019-11-08 13:00:00 5 39 Oeste 55 Oeste 0 -- -- 74
2019-11-08 12:00:00 4.1 30 Oeste 54 Oeste 0 -- -- 80
2019-11-08 11:00:00 3 35 Oeste 54 Oeste 0 -- -- 83
2019-11-08 10:00:00 2.4 33 Oeste 56 Oeste 0 -- -- 84
2019-11-08 09:00:00 1.7 27 Oeste 45 Oeste 0 -- -- 88
2019-11-08 08:00:00 1.4 29 Oeste 46 Oeste 0 -- -- 89
2019-11-08 07:00:00 1.2 30 Oeste 43 Oeste 0 -- -- 90
2019-11-08 06:00:00 1.1 23 Oeste 44 Oeste 0 -- -- 90
2019-11-08 05:00:00 1.3 27 Oeste 41 Oeste 0 -- -- 86
2019-11-08 04:00:00 1.5 29 Oeste 46 Oeste 0 -- -- 84
2019-11-08 03:00:00 1.7 28 Oeste 45 Oeste 0 -- -- 84
2019-11-08 02:00:00 1.7 26 Oeste 39 Oeste 0 -- -- 87
2019-11-08 01:00:00 1.6 16 Oeste 32 Oeste 0 -- -- 88
2019-11-08 00:00:00 1.2 18 Oeste 39 Oeste 0 -- -- 88